Airfield :







YOU CAN JOIN US ON...

 
LOGIN :

Register | Disclaimer

   EN    FR    IT 

 









Legend :    VFR   Marginal VFR   IFR   Intensive IFR   Very Intensive IFR
Visi :
Ceiling :
>= 8 km
>= 3000ft
5 to 8 km
1000 to 3000 ft
1500m to 5 km
500 to 1000 ft
800 to 1500m
200 to 500 ft
< 800m
< 200 ft
Symbols :   Thunderstorms  Fog  Heavy snow  Heavy precipitations  Wind > 20 kt






- Airport Elevation : 68 ft
- IATA code : YFC


CYFC - Fredericton

CURRENT METAR :
  • 061400Z AUTO 26010G17KT 220V290 9SM SCT026 M03/M08 A2985 RMK SLP112

EXPIRED METARs :
  • 061300Z AUTO 26007G15KT 9SM CLR M03/M08 A2983 RMK PRESRR SLP102

TAF TAF CYFC
Valid from the 06 at 12:00 until the 07 at 00:00 UTC


061138Z 0612/0624 26010KT P6SM SCT020
TEMPO 0612/0615 BKN020
BECMG 0613/0615 26010G20KT
FM061500 26010G20KT P6SM BKN040
FM062200 27008KT P6SM SCT040 BKN080 RMK FCST BASED ON AUTO OBS. NXT FCST BY 061800Z



MET'MAP, your aeronautical weather chart ! - Copyright ORBIFLY December 2007 - Disclaimer

ORBIFLY MET'MAP TEAM :

Programming & Development : Alexandra Zaïnal
Concept & original design : Baudouin d'Aumeries
Assistance for programming : Marc-Olivier Méhu
Technical & hardware support : Manuel Goepfert

Contact : metmap@orbifly.com




SOURCES & CREDITS :

   NOAA